Time;durP1;ratioP1;P1;durP2;ratioP2;P2;SDS_P1;SDS_P2;PMS_P1;PMS_P2;Temp;Humidity;BMP_temperature;BMP_pressure;BME280_temperature;BME280_humidity;BME280_pressure;Samples;Min_cycle;Max_cycle;Signal;HPM_P1;HPM_P2
2024/04/23 06:50:44;;;;;;;4.53;4.13;;;;;;;;;;5494109;25;20629;-88
2024/04/23 06:53:10;;;;;;;6.05;4.70;;;;;;;;;;5470683;26;20233;-89
2024/04/23 06:55:40;;;;;;;2.88;2.67;;;;;;;;;;5470226;26;20260;-88
2024/04/23 07:03:44;;;;;;;4.72;3.70;;;;;;;;;;5505077;25;20627;-85
2024/04/23 07:06:10;;;;;;;2.92;2.70;;;;;;;;;;5507531;25;20732;-87
2024/04/23 07:08:39;;;;;;;6.82;3.90;;;;;;;;;;5507223;25;20734;-87
2024/04/23 07:11:06;;;;;;;5.72;4.05;;;;;;;;;;5499384;25;20240;-87
2024/04/23 07:13:35;;;;;;;4.00;3.65;;;;;;;;;;5506334;25;20289;-88
2024/04/23 07:16:03;;;;;;;4.75;4.35;;;;;;;;;;5506537;25;20228;-87
2024/04/23 07:18:32;;;;;;;4.85;4.45;;;;;;;;;;5494302;25;20229;-87
2024/04/23 07:21:03;;;;;;;4.80;4.40;;;;;;;;;;5486394;26;20260;-87
2024/04/23 07:23:30;;;;;;;4.35;4.00;;;;;;;;;;5496393;25;20267;-87
2024/04/23 07:25:59;;;;;;;3.72;3.38;;;;;;;;;;5495112;25;20266;-87
2024/04/23 07:28:29;;;;;;;4.72;4.22;;;;;;;;;;5505985;25;20255;-87
2024/04/23 07:30:57;;;;;;;4.45;3.25;;;;;;;;;;5506720;25;20233;-87
2024/04/23 07:33:26;;;;;;;4.57;3.15;;;;;;;;;;5501377;25;20318;-87
2024/04/23 07:35:52;;;;;;;3.38;2.95;;;;;;;;;;5495524;25;20244;-87
2024/04/23 07:38:24;;;;;;;3.03;2.72;;;;;;;;;;5476850;25;20237;-87
2024/04/23 07:40:50;;;;;;;3.58;3.28;;;;;;;;;;5491052;25;20469;-86
2024/04/23 07:43:19;;;;;;;5.25;3.83;;;;;;;;;;5495625;26;20232;-87
2024/04/23 07:45:46;;;;;;;3.20;2.65;;;;;;;;;;5468726;26;20501;-87
2024/04/23 07:48:15;;;;;;;3.38;3.08;;;;;;;;;;5496588;25;20318;-87
2024/04/23 07:50:41;;;;;;;3.65;3.35;;;;;;;;;;5487323;26;20236;-87
2024/04/23 07:53:10;;;;;;;2.80;2.60;;;;;;;;;;5506067;25;20311;-87
2024/04/23 07:55:39;;;;;;;3.17;2.88;;;;;;;;;;5493908;25;20684;-87
2024/04/23 07:58:08;;;;;;;2.85;2.55;;;;;;;;;;5505925;25;20233;-87
2024/04/23 08:00:35;;;;;;;2.85;2.65;;;;;;;;;;5506632;25;20321;-86
2024/04/23 08:03:07;;;;;;;2.97;2.70;;;;;;;;;;5505938;25;20339;-87
2024/04/23 08:05:33;;;;;;;3.45;3.15;;;;;;;;;;5506016;25;20224;-87
2024/04/23 08:08:02;;;;;;;5.03;2.60;;;;;;;;;;5506063;25;20749;-86
2024/04/23 08:10:29;;;;;;;2.55;2.35;;;;;;;;;;5492295;25;20302;-86
2024/04/23 08:13:00;;;;;;;2.42;2.30;;;;;;;;;;5504161;25;20228;-87
2024/04/23 08:15:27;;;;;;;2.80;2.60;;;;;;;;;;5471228;26;20336;-86
2024/04/23 08:17:56;;;;;;;3.15;2.85;;;;;;;;;;5480106;26;20240;-87
2024/04/23 08:20:22;;;;;;;3.33;2.58;;;;;;;;;;5490653;26;20241;-87
2024/04/23 08:22:53;;;;;;;2.70;2.50;;;;;;;;;;5467393;26;20780;-86
2024/04/23 08:25:20;;;;;;;2.65;2.45;;;;;;;;;;5479353;26;20281;-86
2024/04/23 08:27:49;;;;;;;2.45;2.25;;;;;;;;;;5490099;26;20300;-87
2024/04/23 08:30:20;;;;;;;3.08;2.78;;;;;;;;;;5490258;26;20232;-86
2024/04/23 08:32:49;;;;;;;2.67;2.47;;;;;;;;;;5481794;26;20217;-87
2024/04/23 08:35:15;;;;;;;3.03;2.58;;;;;;;;;;5508838;26;20230;-87
2024/04/23 08:37:45;;;;;;;2.40;2.20;;;;;;;;;;5497649;26;20244;-86
2024/04/23 08:40:12;;;;;;;2.88;2.30;;;;;;;;;;5478937;26;20299;-86
2024/04/23 08:42:44;;;;;;;2.55;2.38;;;;;;;;;;5488766;26;20276;-86
2024/04/23 08:45:11;;;;;;;2.65;2.45;;;;;;;;;;5489972;26;20245;-87
2024/04/23 08:47:43;;;;;;;3.30;2.53;;;;;;;;;;5488498;26;20835;-89
2024/04/23 08:50:09;;;;;;;2.17;2.08;;;;;;;;;;5490010;26;20332;-87
2024/04/23 08:52:40;;;;;;;1.90;1.80;;;;;;;;;;5489307;26;20775;-87
2024/04/23 08:55:06;;;;;;;1.80;1.70;;;;;;;;;;5473537;26;20328;-87
2024/04/23 08:57:39;;;;;;;2.22;2.03;;;;;;;;;;5489211;26;20329;-86
2024/04/23 09:00:10;;;;;;;2.28;2.10;;;;;;;;;;5489437;26;20248;-88
2024/04/23 09:02:40;;;;;;;1.63;1.52;;;;;;;;;;5489270;26;20781;-87
2024/04/23 09:05:11;;;;;;;1.27;1.27;;;;;;;;;;5489462;26;20233;-87
2024/04/23 09:07:37;;;;;;;1.92;1.83;;;;;;;;;;5489276;26;20259;-87
2024/04/23 09:10:09;;;;;;;1.98;1.88;;;;;;;;;;5484762;26;20248;-88
2024/04/23 09:12:35;;;;;;;2.20;2.00;;;;;;;;;;5487972;26;20272;-87
2024/04/23 09:15:06;;;;;;;2.33;2.22;;;;;;;;;;5489059;26;20799;-88
2024/04/23 09:17:34;;;;;;;1.88;1.77;;;;;;;;;;5476807;26;20348;-87
2024/04/23 09:20:07;;;;;;;1.80;1.70;;;;;;;;;;5468387;26;20275;-87
2024/04/23 09:22:34;;;;;;;1.45;1.35;;;;;;;;;;5489616;26;20302;-86
2024/04/23 09:25:04;;;;;;;3.78;1.90;;;;;;;;;;5475013;26;20229;-87
2024/04/23 09:27:32;;;;;;;1.65;1.55;;;;;;;;;;5463864;26;20572;-87
2024/04/23 09:30:01;;;;;;;2.28;1.70;;;;;;;;;;5486545;26;20345;-88
2024/04/23 09:32:27;;;;;;;3.45;2.50;;;;;;;;;;5485368;26;20225;-87
2024/04/23 09:34:57;;;;;;;2.63;1.88;;;;;;;;;;5457169;26;20238;-88
2024/04/23 09:37:26;;;;;;;2.63;2.42;;;;;;;;;;5460191;26;20258;-88
2024/04/23 09:40:02;;;;;;;1.90;1.80;;;;;;;;;;5467736;26;20242;-87
2024/04/23 09:42:29;;;;;;;1.65;1.55;;;;;;;;;;5483180;26;20228;-87
2024/04/23 09:44:58;;;;;;;1.90;1.80;;;;;;;;;;5490952;26;20233;-86
2024/04/23 09:47:24;;;;;;;1.77;1.63;;;;;;;;;;5473690;26;20237;-86
2024/04/23 09:49:56;;;;;;;1.88;1.77;;;;;;;;;;5478335;26;20234;-88
2024/04/23 09:52:34;;;;;;;1.92;1.73;;;;;;;;;;5482048;26;20259;-87
2024/04/23 09:55:03;;;;;;;3.15;2.25;;;;;;;;;;5482779;26;20233;-88
2024/04/23 09:57:30;;;;;;;1.83;1.70;;;;;;;;;;5464358;26;20225;-87
2024/04/23 09:59:59;;;;;;;1.60;1.50;;;;;;;;;;5471006;26;20337;-87
2024/04/23 10:02:28;;;;;;;1.48;1.38;;;;;;;;;;5484964;26;20349;-87
2024/04/23 10:05:07;;;;;;;1.25;1.25;;;;;;;;;;5462347;26;20269;-86
2024/04/23 10:07:53;;;;;;;1.50;1.40;;;;;;;;;;5460804;26;20298;-87
2024/04/23 10:10:28;;;;;;;1.40;1.30;;;;;;;;;;5481530;26;20736;-86
2024/04/23 10:12:56;;;;;;;1.75;1.65;;;;;;;;;;5482716;26;20225;-86
2024/04/23 10:15:32;;;;;;;1.60;1.50;;;;;;;;;;5475002;26;20742;-86
2024/04/23 10:18:06;;;;;;;1.40;1.30;;;;;;;;;;5468748;26;20220;-86
2024/04/23 10:20:42;;;;;;;1.60;1.50;;;;;;;;;;5466860;26;20271;-87
2024/04/23 10:23:11;;;;;;;1.75;1.65;;;;;;;;;;5478579;26;20241;-86
2024/04/23 10:25:41;;;;;;;1.17;1.13;;;;;;;;;;5474193;26;20320;-87
2024/04/23 10:28:07;;;;;;;1.10;1.10;;;;;;;;;;5487856;26;20864;-87
2024/04/23 10:30:37;;;;;;;1.10;1.10;;;;;;;;;;5488060;26;20256;-86
2024/04/23 10:33:05;;;;;;;1.60;1.42;;;;;;;;;;5488063;26;20328;-87
2024/04/23 10:35:35;;;;;;;2.17;1.98;;;;;;;;;;5488068;26;20263;-87
2024/04/23 10:38:04;;;;;;;1.40;1.30;;;;;;;;;;5488410;26;20554;-86
2024/04/23 10:40:36;;;;;;;1.45;1.35;;;;;;;;;;5479753;26;20318;-87
2024/04/23 10:43:03;;;;;;;1.60;1.50;;;;;;;;;;5480347;26;20281;-86
2024/04/23 10:45:32;;;;;;;1.75;1.65;;;;;;;;;;5492060;26;20297;-87
2024/04/23 10:48:07;;;;;;;1.40;1.30;;;;;;;;;;5443844;26;20232;-87
2024/04/23 10:50:36;;;;;;;1.40;1.30;;;;;;;;;;5482226;26;20276;-86
2024/04/23 10:53:06;;;;;;;1.50;1.40;;;;;;;;;;5488214;26;20229;-87
2024/04/23 10:55:35;;;;;;;1.08;1.08;;;;;;;;;;5473938;26;20348;-86
2024/04/23 10:58:05;;;;;;;1.63;1.48;;;;;;;;;;5466816;26;20293;-87
2024/04/23 11:00:36;;;;;;;1.67;1.30;;;;;;;;;;5487415;26;20248;-87
2024/04/23 11:03:15;;;;;;;1.10;1.10;;;;;;;;;;5488621;26;20268;-87
2024/04/23 11:05:46;;;;;;;1.70;1.48;;;;;;;;;;5487357;26;20229;-87
2024/04/23 11:08:24;;;;;;;1.10;1.10;;;;;;;;;;5488447;26;20237;-86
2024/04/23 11:11:03;;;;;;;1.40;1.30;;;;;;;;;;5479782;26;20754;-87
2024/04/23 11:13:38;;;;;;;1.60;1.50;;;;;;;;;;5488332;26;20256;-87
2024/04/23 11:16:14;;;;;;;1.70;1.60;;;;;;;;;;5488761;26;20228;-86
2024/04/23 11:18:45;;;;;;;1.20;1.10;;;;;;;;;;5485754;26;20294;-87
2024/04/23 11:21:11;;;;;;;1.33;1.23;;;;;;;;;;5488493;26;20288;-86
2024/04/23 11:23:43;;;;;;;1.40;1.30;;;;;;;;;;5487857;26;20272;-87
2024/04/23 11:26:14;;;;;;;1.40;1.30;;;;;;;;;;5473425;26;20225;-87
2024/04/23 11:28:43;;;;;;;1.80;1.70;;;;;;;;;;5485093;26;20591;-87
2024/04/23 11:31:10;;;;;;;1.52;1.42;;;;;;;;;;5469980;26;20324;-87
2024/04/23 11:33:43;;;;;;;1.50;1.40;;;;;;;;;;5489139;26;20224;-87
2024/04/23 11:36:10;;;;;;;1.50;1.40;;;;;;;;;;5487355;26;20367;-86
2024/04/23 11:38:43;;;;;;;1.42;1.25;;;;;;;;;;5487915;26;20229;-87
2024/04/23 11:41:14;;;;;;;1.80;1.70;;;;;;;;;;5460256;26;20277;-87
2024/04/23 11:43:46;;;;;;;1.63;1.52;;;;;;;;;;5480821;26;20583;-87
2024/04/23 11:46:13;;;;;;;1.88;1.77;;;;;;;;;;5470905;26;20264;-87
2024/04/23 11:48:42;;;;;;;1.63;1.52;;;;;;;;;;5484762;26;20236;-88
2024/04/23 11:51:10;;;;;;;1.80;1.70;;;;;;;;;;5492319;26;20293;-87
2024/04/23 11:53:39;;;;;;;1.70;1.60;;;;;;;;;;5490391;26;20662;-87
2024/04/23 11:56:06;;;;;;;1.50;1.40;;;;;;;;;;5483006;26;20324;-87
2024/04/23 11:58:43;;;;;;;1.95;1.85;;;;;;;;;;5491281;26;20289;-87
2024/04/23 12:01:10;;;;;;;1.48;1.33;;;;;;;;;;5475061;26;20230;-87
2024/04/23 12:03:39;;;;;;;0.90;0.90;;;;;;;;;;5455479;26;20234;-87
2024/04/23 12:06:07;;;;;;;1.58;1.20;;;;;;;;;;5489886;26;20275;-86
2024/04/23 12:08:36;;;;;;;1.35;1.30;;;;;;;;;;5489958;26;20263;-87
2024/04/23 12:11:04;;;;;;;1.58;1.48;;;;;;;;;;5481482;26;20241;-87
2024/04/23 12:13:33;;;;;;;2.22;1.60;;;;;;;;;;5466710;26;20327;-88
2024/04/23 12:16:05;;;;;;;1.70;1.60;;;;;;;;;;5494897;26;20313;-88
2024/04/23 12:18:34;;;;;;;1.70;1.60;;;;;;;;;;5479079;26;20229;-88
2024/04/23 12:21:01;;;;;;;1.65;1.55;;;;;;;;;;5467565;26;20348;-88
2024/04/23 12:23:30;;;;;;;1.58;1.48;;;;;;;;;;5489746;26;20241;-87
2024/04/23 12:25:56;;;;;;;1.17;1.17;;;;;;;;;;5475043;26;20292;-87
2024/04/23 12:28:26;;;;;;;1.35;1.27;;;;;;;;;;5489166;26;20300;-87
2024/04/23 12:30:52;;;;;;;1.00;1.00;;;;;;;;;;5489389;26;20247;-88
2024/04/23 12:33:29;;;;;;;4.03;2.97;;;;;;;;;;5489720;26;20225;-88
2024/04/23 12:36:06;;;;;;;1.38;1.27;;;;;;;;;;5489207;26;20245;-89
2024/04/23 12:38:44;;;;;;;1.10;1.10;;;;;;;;;;5495482;26;20317;-88
2024/04/23 12:41:13;;;;;;;1.50;1.40;;;;;;;;;;5498756;26;20293;-87
2024/04/23 12:43:42;;;;;;;1.30;1.20;;;;;;;;;;5500541;26;20221;-87
2024/04/23 12:46:10;;;;;;;1.60;1.50;;;;;;;;;;5506145;26;20272;-88
2024/04/23 12:48:42;;;;;;;1.75;1.65;;;;;;;;;;5507061;26;20253;-87
2024/04/23 12:51:09;;;;;;;1.10;1.10;;;;;;;;;;5503069;26;20298;-88
2024/04/23 12:53:39;;;;;;;2.03;1.83;;;;;;;;;;5508639;26;20295;-87
2024/04/23 12:56:07;;;;;;;1.10;1.10;;;;;;;;;;5483307;26;20289;-88
2024/04/23 12:58:37;;;;;;;1.40;1.30;;;;;;;;;;5446341;26;20226;-89
2024/04/23 13:01:04;;;;;;;1.50;1.40;;;;;;;;;;5490368;26;20271;-89
2024/04/23 13:03:33;;;;;;;1.23;1.23;;;;;;;;;;5458891;26;20330;-89
2024/04/23 13:06:02;;;;;;;1.50;1.40;;;;;;;;;;5477045;26;20233;-89
2024/04/23 13:08:34;;;;;;;1.92;1.83;;;;;;;;;;5490626;26;20276;-89
2024/04/23 13:11:00;;;;;;;4.10;2.95;;;;;;;;;;5480226;26;20583;-89
2024/04/23 13:13:29;;;;;;;1.75;1.50;;;;;;;;;;5481188;26;20235;-89
2024/04/23 13:15:56;;;;;;;1.40;1.30;;;;;;;;;;5477978;26;20275;-89
2024/04/23 13:18:25;;;;;;;1.63;1.52;;;;;;;;;;5470069;26;20256;-89
2024/04/23 13:20:51;;;;;;;1.50;1.40;;;;;;;;;;5489285;26;20284;-89
2024/04/23 13:23:23;;;;;;;1.90;1.80;;;;;;;;;;5474835;26;20234;-88
2024/04/23 13:25:54;;;;;;;1.60;1.50;;;;;;;;;;5463353;26;20239;-89
2024/04/23 13:28:23;;;;;;;2.65;1.55;;;;;;;;;;5462606;26;20289;-89
2024/04/23 13:30:54;;;;;;;1.38;1.27;;;;;;;;;;5475208;26;20341;-88
2024/04/23 13:33:23;;;;;;;1.45;1.20;;;;;;;;;;5489840;26;20228;-87
2024/04/23 13:35:49;;;;;;;1.25;1.17;;;;;;;;;;5457201;26;20330;-87
2024/04/23 13:38:21;;;;;;;1.27;1.27;;;;;;;;;;5441253;26;20228;-88
2024/04/23 13:40:48;;;;;;;1.23;1.17;;;;;;;;;;5459820;26;20252;-88
2024/04/23 13:43:17;;;;;;;1.40;1.30;;;;;;;;;;5470641;26;20237;-88
2024/04/23 13:45:43;;;;;;;1.42;1.33;;;;;;;;;;5488613;26;20833;-87
2024/04/23 13:48:13;;;;;;;1.35;1.25;;;;;;;;;;5470769;26;20241;-89
2024/04/23 13:50:39;;;;;;;1.67;1.58;;;;;;;;;;5473157;26;20233;-87
2024/04/23 13:53:08;;;;;;;1.90;1.80;;;;;;;;;;5487229;26;20221;-88
2024/04/23 13:55:38;;;;;;;2.00;1.90;;;;;;;;;;5451984;26;20295;-88
2024/04/23 13:58:07;;;;;;;1.80;1.70;;;;;;;;;;5452304;26;20226;-88
2024/04/23 14:00:34;;;;;;;1.67;1.30;;;;;;;;;;5481832;26;20284;-87
2024/04/23 14:03:03;;;;;;;1.27;1.20;;;;;;;;;;5459857;26;20275;-89
2024/04/23 14:05:29;;;;;;;1.30;1.30;;;;;;;;;;5487928;26;20320;-88
2024/04/23 14:07:58;;;;;;;1.63;1.52;;;;;;;;;;5488401;26;20333;-89
2024/04/23 14:10:24;;;;;;;1.70;1.60;;;;;;;;;;5467695;26;20338;-89
2024/04/23 14:12:56;;;;;;;1.80;1.70;;;;;;;;;;5468375;26;20350;-88
2024/04/23 14:15:23;;;;;;;1.60;1.50;;;;;;;;;;5473124;26;20225;-88
2024/04/23 14:17:52;;;;;;;2.25;1.70;;;;;;;;;;5462502;26;20298;-88
2024/04/23 14:20:21;;;;;;;1.85;1.30;;;;;;;;;;5488354;26;20309;-88
2024/04/23 14:22:47;;;;;;;1.60;1.50;;;;;;;;;;5488102;26;20289;-89
2024/04/23 14:25:16;;;;;;;1.85;1.50;;;;;;;;;;5456973;26;20755;-89
2024/04/23 14:27:43;;;;;;;1.60;1.50;;;;;;;;;;5454341;26;20255;-89
2024/04/23 14:30:15;;;;;;;3.30;1.40;;;;;;;;;;5488665;26;20701;-89
2024/04/23 14:32:41;;;;;;;1.63;1.52;;;;;;;;;;5488454;26;20261;-89
2024/04/23 14:35:10;;;;;;;1.80;1.55;;;;;;;;;;5473742;26;20410;-90
2024/04/23 14:37:37;;;;;;;1.70;1.60;;;;;;;;;;5473755;26;20294;-89
2024/04/23 14:40:08;;;;;;;1.77;1.67;;;;;;;;;;5458368;26;20331;-89
2024/04/23 14:42:35;;;;;;;1.92;1.83;;;;;;;;;;5446192;26;20330;-89
2024/04/23 14:45:04;;;;;;;1.80;1.70;;;;;;;;;;5444922;26;20662;-88
2024/04/23 14:47:34;;;;;;;2.38;2.10;;;;;;;;;;5447330;26;20300;-88
2024/04/23 14:50:06;;;;;;;1.95;1.85;;;;;;;;;;5455792;26;20238;-87
2024/04/23 14:52:33;;;;;;;1.80;1.70;;;;;;;;;;5470193;26;20260;-88
2024/04/23 14:55:02;;;;;;;2.58;2.00;;;;;;;;;;5478566;26;20309;-88
2024/04/23 14:57:29;;;;;;;2.35;2.25;;;;;;;;;;5474324;26;20281;-88
2024/04/23 14:59:58;;;;;;;1.73;1.63;;;;;;;;;;5490485;26;20305;-87
2024/04/23 15:02:24;;;;;;;2.80;2.60;;;;;;;;;;5473553;26;20691;-88
2024/04/23 15:04:56;;;;;;;2.13;2.00;;;;;;;;;;5473505;26;20351;-88
2024/04/23 15:07:30;;;;;;;2.13;1.92;;;;;;;;;;5437963;26;20338;-89
2024/04/23 15:09:59;;;;;;;1.80;1.70;;;;;;;;;;5450795;26;20276;-88
2024/04/23 15:12:27;;;;;;;1.92;1.83;;;;;;;;;;5471936;26;20346;-88
2024/04/23 15:14:56;;;;;;;1.98;1.88;;;;;;;;;;5472369;26;20230;-88
2024/04/23 15:17:22;;;;;;;2.22;2.05;;;;;;;;;;5476208;26;21025;-89
2024/04/23 15:19:52;;;;;;;1.90;1.77;;;;;;;;;;5437372;26;20294;-89
2024/04/23 15:22:22;;;;;;;2.05;1.92;;;;;;;;;;5448517;26;20221;-87
2024/04/23 15:24:51;;;;;;;1.77;1.67;;;;;;;;;;5475405;26;20214;-89
2024/04/23 15:27:17;;;;;;;1.98;1.70;;;;;;;;;;5480547;26;20222;-87
2024/04/23 15:29:46;;;;;;;2.30;2.10;;;;;;;;;;5486583;26;20293;-88
2024/04/23 15:32:13;;;;;;;2.20;2.00;;;;;;;;;;5490196;26;20328;-88
2024/04/23 15:34:42;;;;;;;4.15;1.70;;;;;;;;;;5488739;26;20259;-87
2024/04/23 15:37:10;;;;;;;2.38;1.55;;;;;;;;;;5454317;26;20246;-88
2024/04/23 15:39:42;;;;;;;1.88;1.75;;;;;;;;;;5469433;26;20233;-89
2024/04/23 15:42:09;;;;;;;2.15;2.05;;;;;;;;;;5455353;26;20867;-89
2024/04/23 15:44:38;;;;;;;2.47;2.00;;;;;;;;;;5489717;26;20581;-89
2024/04/23 15:47:05;;;;;;;2.30;2.10;;;;;;;;;;5480395;26;20645;-89
2024/04/23 15:49:34;;;;;;;3.33;1.90;;;;;;;;;;5468076;26;20280;-88
2024/04/23 15:52:01;;;;;;;2.05;1.88;;;;;;;;;;5461002;26;20772;-88
2024/04/23 15:54:30;;;;;;;2.10;2.00;;;;;;;;;;5472338;26;20235;-89
2024/04/23 15:56:59;;;;;;;2.00;1.90;;;;;;;;;;5473658;26;20699;-89
2024/04/23 15:59:29;;;;;;;2.10;2.00;;;;;;;;;;5490107;26;20225;-88
2024/04/23 16:01:55;;;;;;;1.90;1.73;;;;;;;;;;5492169;26;20272;-88
2024/04/23 16:04:24;;;;;;;2.00;1.90;;;;;;;;;;5513190;26;20274;-89
2024/04/23 16:06:51;;;;;;;1.92;1.83;;;;;;;;;;5513175;26;20574;-88
2024/04/23 16:09:20;;;;;;;2.20;2.00;;;;;;;;;;5513334;26;20302;-89
2024/04/23 16:11:46;;;;;;;3.08;1.90;;;;;;;;;;5478607;26;20279;-87
2024/04/23 16:14:18;;;;;;;1.95;1.85;;;;;;;;;;5512631;26;20298;-88
2024/04/23 16:16:44;;;;;;;2.28;1.95;;;;;;;;;;5507617;26;20332;-88
2024/04/23 16:19:14;;;;;;;1.83;1.73;;;;;;;;;;5462897;26;20234;-90
2024/04/23 16:21:40;;;;;;;2.80;1.92;;;;;;;;;;5457764;26;20214;-89
2024/04/23 16:24:10;;;;;;;2.33;2.10;;;;;;;;;;5456173;26;20245;-90
2024/04/23 16:26:36;;;;;;;2.30;2.10;;;;;;;;;;5452537;26;20233;-88
2024/04/23 16:29:06;;;;;;;2.85;1.80;;;;;;;;;;5466042;26;20345;-89
2024/04/23 16:31:35;;;;;;;2.85;2.25;;;;;;;;;;5461682;26;20263;-89
2024/04/23 16:34:04;;;;;;;2.38;2.20;;;;;;;;;;5490345;26;20374;-89
2024/04/23 16:36:31;;;;;;;2.42;2.30;;;;;;;;;;5476106;26;20265;-89
2024/04/23 16:39:00;;;;;;;1.60;1.50;;;;;;;;;;5489382;26;20228;-89
2024/04/23 16:41:27;;;;;;;1.90;1.50;;;;;;;;;;5454924;26;20334;-89
2024/04/23 16:43:56;;;;;;;1.52;1.42;;;;;;;;;;5472755;26;20264;-88
2024/04/23 16:46:24;;;;;;;1.83;1.70;;;;;;;;;;5465622;26;20223;-89
2024/04/23 16:48:56;;;;;;;2.10;2.00;;;;;;;;;;5454461;26;20296;-88
2024/04/23 16:51:22;;;;;;;1.92;1.83;;;;;;;;;;5465444;26;20695;-89
2024/04/23 16:53:51;;;;;;;1.80;1.70;;;;;;;;;;5488914;26;20337;-88
2024/04/23 16:56:20;;;;;;;2.08;1.98;;;;;;;;;;5453766;26;20229;-88
2024/04/23 16:58:47;;;;;;;4.00;1.95;;;;;;;;;;5459134;26;20283;-88
2024/04/23 17:01:16;;;;;;;2.00;1.90;;;;;;;;;;5489485;26;20272;-89
2024/04/23 17:03:43;;;;;;;2.92;2.00;;;;;;;;;;5484248;26;20693;-89
2024/04/23 17:06:15;;;;;;;2.22;2.13;;;;;;;;;;5464705;26;20233;-88
2024/04/23 17:08:42;;;;;;;3.40;2.50;;;;;;;;;;5492533;26;20306;-89
2024/04/23 17:11:11;;;;;;;2.33;2.13;;;;;;;;;;5478812;26;20268;-88
2024/04/23 17:13:38;;;;;;;2.67;2.05;;;;;;;;;;5496122;26;20237;-89
2024/04/23 17:16:16;;;;;;;2.63;2.42;;;;;;;;;;5491279;26;20229;-89
2024/04/23 17:18:42;;;;;;;3.10;1.85;;;;;;;;;;5472660;26;20289;-88
2024/04/23 17:21:19;;;;;;;2.42;2.05;;;;;;;;;;5465768;26;20814;-89
2024/04/23 17:23:46;;;;;;;3.22;2.45;;;;;;;;;;5486028;26;20341;-89
2024/04/23 17:26:16;;;;;;;3.00;1.77;;;;;;;;;;5460159;26;20222;-89
2024/04/23 17:28:42;;;;;;;3.03;1.80;;;;;;;;;;5475074;26;20316;-89
2024/04/23 17:31:14;;;;;;;2.72;2.13;;;;;;;;;;5489293;26;20267;-89
2024/04/23 17:33:40;;;;;;;2.28;2.08;;;;;;;;;;5488481;26;20252;-89
2024/04/23 17:36:10;;;;;;;1.88;1.77;;;;;;;;;;5489411;26;20264;-89
2024/04/23 17:38:40;;;;;;;1.88;1.77;;;;;;;;;;5488477;26;20366;-89
2024/04/23 17:41:09;;;;;;;2.40;2.08;;;;;;;;;;5458993;26;20242;-89
2024/04/23 17:43:38;;;;;;;2.58;1.85;;;;;;;;;;5483205;26;20688;-89
2024/04/23 17:46:08;;;;;;;4.97;2.65;;;;;;;;;;5488223;26;20229;-89
2024/04/23 17:48:35;;;;;;;3.58;2.63;;;;;;;;;;5486368;26;20718;-89
2024/04/23 17:51:06;;;;;;;2.22;2.13;;;;;;;;;;5488785;26;20337;-89
2024/04/23 17:53:35;;;;;;;1.90;1.80;;;;;;;;;;5458833;26;20729;-89
2024/04/23 17:56:06;;;;;;;1.90;1.80;;;;;;;;;;5448287;26;20237;-89
2024/04/23 17:58:35;;;;;;;2.65;2.25;;;;;;;;;;5488288;26;20289;-89
2024/04/23 18:01:05;;;;;;;2.28;2.08;;;;;;;;;;5444582;26;20237;-91
2024/04/23 18:03:37;;;;;;;1.90;1.80;;;;;;;;;;5488095;26;20255;-88
2024/04/23 18:06:05;;;;;;;1.40;1.30;;;;;;;;;;5488176;26;20229;-89
2024/04/23 18:08:34;;;;;;;1.45;1.35;;;;;;;;;;5487824;26;20649;-89
2024/04/23 18:11:06;;;;;;;1.50;1.40;;;;;;;;;;5466660;26;20739;-89
2024/04/23 18:13:38;;;;;;;1.88;1.77;;;;;;;;;;5488348;26;20229;-89
2024/04/23 18:16:06;;;;;;;1.92;1.80;;;;;;;;;;5461040;26;20341;-89
2024/04/23 18:18:35;;;;;;;1.60;1.50;;;;;;;;;;5457374;26;20832;-90
2024/04/23 18:21:02;;;;;;;1.42;1.33;;;;;;;;;;5437410;26;20238;-89
2024/04/23 18:23:34;;;;;;;1.80;1.35;;;;;;;;;;5464944;26;20229;-89
2024/04/23 18:26:05;;;;;;;1.40;1.30;;;;;;;;;;5445290;26;20230;-89
2024/04/23 18:28:35;;;;;;;1.83;1.73;;;;;;;;;;5455390;26;20408;-89
2024/04/23 18:31:05;;;;;;;1.70;1.60;;;;;;;;;;5441819;26;20270;-89
2024/04/23 18:33:31;;;;;;;1.73;1.63;;;;;;;;;;5485968;26;20247;-90
2024/04/23 18:36:02;;;;;;;1.95;1.52;;;;;;;;;;5490080;26;20293;-90
2024/04/23 18:38:29;;;;;;;1.58;1.48;;;;;;;;;;5475231;26;20719;-89
2024/04/23 18:41:11;;;;;;;1.67;1.58;;;;;;;;;;5442469;26;20238;-89
2024/04/23 18:43:38;;;;;;;1.52;1.42;;;;;;;;;;5464520;26;20723;-88
2024/04/23 18:46:15;;;;;;;1.75;1.65;;;;;;;;;;5476181;26;20237;-89
2024/04/23 18:48:42;;;;;;;1.45;1.40;;;;;;;;;;5455822;26;20275;-89
2024/04/23 18:51:12;;;;;;;1.77;1.55;;;;;;;;;;5488278;26;20289;-89
2024/04/23 18:53:39;;;;;;;2.50;2.30;;;;;;;;;;5487223;26;20264;-89
2024/04/23 18:56:12;;;;;;;2.08;1.88;;;;;;;;;;5451405;26;20274;-88
2024/04/23 18:58:39;;;;;;;2.25;2.05;;;;;;;;;;5486194;26;20333;-88
2024/04/23 19:01:10;;;;;;;2.30;2.03;;;;;;;;;;5459112;26;20225;-88
2024/04/23 19:03:38;;;;;;;1.65;1.52;;;;;;;;;;5487438;26;20271;-89
2024/04/23 19:06:11;;;;;;;1.77;1.67;;;;;;;;;;5487233;26;20237;-89
2024/04/23 19:08:37;;;;;;;1.70;1.60;;;;;;;;;;5472200;26;20251;-89
2024/04/23 19:11:09;;;;;;;1.70;1.60;;;;;;;;;;5465759;26;20300;-89
2024/04/23 19:13:36;;;;;;;1.60;1.50;;;;;;;;;;5486776;26;20358;-89
2024/04/23 19:16:10;;;;;;;1.60;1.50;;;;;;;;;;5486876;26;20271;-89
2024/04/23 19:18:38;;;;;;;1.60;1.50;;;;;;;;;;5486956;26;20220;-87
2024/04/23 19:21:08;;;;;;;1.95;1.52;;;;;;;;;;5505517;26;20723;-88
2024/04/23 19:23:35;;;;;;;1.50;1.40;;;;;;;;;;5491766;26;20718;-89
2024/04/23 19:26:06;;;;;;;1.60;1.50;;;;;;;;;;5460258;26;20226;-88
2024/04/23 19:28:35;;;;;;;1.70;1.60;;;;;;;;;;5466810;26;20242;-88
2024/04/23 19:31:11;;;;;;;1.70;1.60;;;;;;;;;;5481468;26;20229;-87
2024/04/23 19:33:38;;;;;;;1.73;1.63;;;;;;;;;;5510785;26;20221;-87
2024/04/23 19:36:08;;;;;;;2.30;2.10;;;;;;;;;;5510942;26;20229;-88
2024/04/23 19:38:35;;;;;;;2.83;2.45;;;;;;;;;;5510769;26;20229;-86
2024/04/23 19:41:08;;;;;;;3.50;2.28;;;;;;;;;;5489411;26;20221;-88
2024/04/23 19:43:40;;;;;;;2.38;2.17;;;;;;;;;;5499229;26;20232;-89
2024/04/23 19:46:12;;;;;;;2.50;2.30;;;;;;;;;;5492523;26;20263;-89
2024/04/23 19:48:39;;;;;;;2.60;2.38;;;;;;;;;;5447142;26;20277;-89
2024/04/23 19:51:08;;;;;;;2.28;2.13;;;;;;;;;;5455536;26;20311;-89
2024/04/23 19:53:34;;;;;;;4.93;1.85;;;;;;;;;;5452193;26;20450;-89
2024/04/23 19:56:04;;;;;;;1.70;1.60;;;;;;;;;;5446128;26;20270;-88
2024/04/23 20:01:20;;;;;;;2.30;1.90;;;;;;;;;;5435375;26;20864;-89
2024/04/23 20:03:49;;;;;;;2.10;1.90;;;;;;;;;;5451352;26;20238;-88
2024/04/23 20:06:18;;;;;;;1.83;1.73;;;;;;;;;;5451351;26;20322;-89
2024/04/23 20:08:47;;;;;;;2.22;2.13;;;;;;;;;;5451007;26;20310;-89
2024/04/23 20:11:16;;;;;;;1.58;1.48;;;;;;;;;;5444628;26;20247;-90
2024/04/23 20:13:45;;;;;;;1.80;1.70;;;;;;;;;;5447123;26;20344;-88
2024/04/23 20:16:14;;;;;;;2.67;2.45;;;;;;;;;;5433284;26;20339;-89
2024/04/23 20:18:46;;;;;;;1.80;1.48;;;;;;;;;;5434841;26;20254;-89
2024/04/23 20:21:16;;;;;;;2.30;2.10;;;;;;;;;;5454368;26;20274;-90
2024/04/23 20:23:45;;;;;;;1.83;1.73;;;;;;;;;;5453734;26;20277;-88
2024/04/23 20:26:15;;;;;;;1.98;1.80;;;;;;;;;;5438360;26;20304;-88
2024/04/23 20:28:44;;;;;;;1.80;1.70;;;;;;;;;;5438486;26;20310;-89
2024/04/23 20:31:14;;;;;;;4.82;2.83;;;;;;;;;;5453759;26;20728;-88
2024/04/23 20:33:46;;;;;;;2.63;2.42;;;;;;;;;;5453217;26;20802;-88
2024/04/23 20:36:15;;;;;;;2.83;2.45;;;;;;;;;;5453635;26;20225;-88
2024/04/23 20:38:42;;;;;;;2.80;2.38;;;;;;;;;;5451165;26;20281;-88
2024/04/23 20:41:12;;;;;;;2.50;2.30;;;;;;;;;;5440323;26;20268;-88
2024/04/23 20:43:41;;;;;;;2.28;1.88;;;;;;;;;;5453812;26;20230;-88
2024/04/23 20:46:10;;;;;;;2.10;1.90;;;;;;;;;;5453641;26;20230;-88
2024/04/23 20:48:40;;;;;;;2.85;2.28;;;;;;;;;;5453083;26;20270;-88
2024/04/23 20:51:11;;;;;;;1.90;1.80;;;;;;;;;;5453088;26;20230;-88
2024/04/23 20:53:40;;;;;;;2.15;1.88;;;;;;;;;;5453282;26;20613;-88
2024/04/23 20:56:10;;;;;;;2.95;2.63;;;;;;;;;;5453744;26;20290;-87
2024/04/23 20:58:39;;;;;;;4.13;3.72;;;;;;;;;;5452681;26;20234;-88
2024/04/23 21:01:09;;;;;;;2.22;2.03;;;;;;;;;;5453037;26;20226;-87
2024/04/23 21:03:39;;;;;;;2.92;2.20;;;;;;;;;;5453126;26;20265;-88
2024/04/23 21:06:15;;;;;;;2.10;2.00;;;;;;;;;;5453075;26;20237;-89
2024/04/23 21:08:45;;;;;;;1.85;1.75;;;;;;;;;;5437896;26;20351;-88
2024/04/23 21:11:18;;;;;;;2.05;1.95;;;;;;;;;;5453141;26;20752;-89
2024/04/23 21:13:45;;;;;;;2.15;1.95;;;;;;;;;;5452839;26;20268;-88
2024/04/23 21:16:14;;;;;;;2.25;2.05;;;;;;;;;;5455667;26;20234;-88
2024/04/23 21:18:44;;;;;;;2.53;2.33;;;;;;;;;;5460170;26;21837;-89
2024/04/23 21:21:16;;;;;;;5.25;3.47;;;;;;;;;;5454483;26;20364;-90
2024/04/23 21:23:45;;;;;;;2.25;2.05;;;;;;;;;;5453259;26;20265;-90
2024/04/23 21:26:17;;;;;;;2.50;2.30;;;;;;;;;;5463925;26;20230;-88
2024/04/23 21:28:47;;;;;;;2.08;1.88;;;;;;;;;;5472957;26;20257;-88
2024/04/23 21:31:16;;;;;;;2.22;2.03;;;;;;;;;;5450634;26;20264;-89
2024/04/23 21:33:45;;;;;;;3.03;2.72;;;;;;;;;;5452494;26;20355;-89
2024/04/23 21:36:17;;;;;;;2.90;2.60;;;;;;;;;;5426968;26;20282;-88
2024/04/23 21:38:47;;;;;;;3.38;3.08;;;;;;;;;;5453329;26;20235;-88
2024/04/23 21:41:18;;;;;;;2.97;2.78;;;;;;;;;;5452409;26;20230;-89
2024/04/23 21:43:48;;;;;;;3.08;2.78;;;;;;;;;;5437142;26;20616;-89
2024/04/23 21:46:18;;;;;;;3.30;3.00;;;;;;;;;;5452378;26;20226;-89
2024/04/23 21:48:45;;;;;;;3.95;3.42;;;;;;;;;;5453811;26;20792;-89
2024/04/23 21:51:19;;;;;;;3.28;2.97;;;;;;;;;;5452197;26;20818;-90
2024/04/23 21:53:46;;;;;;;3.08;2.78;;;;;;;;;;5437282;26;20230;-90